Time;durP1;ratioP1;P1;durP2;ratioP2;P2;SDS_P1;SDS_P2;PMS_P1;PMS_P2;Temp;Humidity;BMP_temperature;BMP_pressure;BME280_temperature;BME280_humidity;BME280_pressure;Samples;Min_cycle;Max_cycle;Signal;HPM_P1;HPM_P2
2022/03/15 00:01:08;;;;;;;16.70;9.43;;;4.40;99.90;;;;;;5035053;28;20053;-65
2022/03/15 00:03:42;;;;;;;17.88;9.52;;;4.30;99.90;;;;;;5035901;28;20037;-65
2022/03/15 00:06:13;;;;;;;18.50;9.13;;;4.30;99.90;;;;;;5031126;28;20063;-65
2022/03/15 00:08:48;;;;;;;16.02;9.50;;;4.30;99.90;;;;;;5060441;28;20041;-65
2022/03/15 00:11:18;;;;;;;19.50;9.27;;;4.30;99.90;;;;;;5061239;28;20281;-65
2022/03/15 00:13:53;;;;;;;16.30;9.05;;;4.20;99.90;;;;;;5043117;28;20504;-65
2022/03/15 00:16:26;;;;;;;13.05;9.10;;;4.30;99.90;;;;;;5062275;28;20040;-65
2022/03/15 00:19:19;;;;;;;;;;;4.20;99.90;;;;;;5032447;28;20049;-64
2022/03/15 00:21:48;;;;;;;14.63;7.25;;;4.20;99.90;;;;;;5054127;28;19925;-64
2022/03/15 00:24:23;;;;;;;13.73;7.90;;;4.20;99.90;;;;;;5055701;28;20384;-65
2022/03/15 00:26:58;;;;;;;13.25;7.78;;;4.20;99.90;;;;;;5034637;28;20052;-65
2022/03/15 00:29:29;;;;;;;13.43;7.97;;;4.10;99.90;;;;;;5034110;28;20661;-65
2022/03/15 00:32:00;;;;;;;13.82;7.85;;;4.10;99.90;;;;;;5055283;28;20111;-65
2022/03/15 00:34:28;;;;;;;14.48;8.15;;;4.10;99.90;;;;;;5054355;28;20358;-66
2022/03/15 00:36:58;;;;;;;15.25;7.63;;;4.00;99.90;;;;;;5054996;28;20044;-66
2022/03/15 00:39:27;;;;;;;15.60;7.97;;;4.00;99.90;;;;;;5061330;28;20044;-65
2022/03/15 00:42:16;;;;;;;15.52;8.32;;;4.00;99.90;;;;;;5060322;28;20043;-66
2022/03/15 00:44:45;;;;;;;14.70;8.00;;;4.00;99.90;;;;;;5038118;28;20060;-66
2022/03/15 00:47:17;;;;;;;17.17;8.30;;;4.00;99.90;;;;;;5041576;28;20052;-66
2022/03/15 00:49:51;;;;;;;14.75;8.32;;;4.10;99.90;;;;;;5054107;28;20163;-66
2022/03/15 00:52:21;;;;;;;13.95;8.43;;;4.10;99.90;;;;;;5021170;28;20065;-66
2022/03/15 00:54:53;;;;;;;15.18;8.45;;;4.10;99.90;;;;;;5052368;28;20060;-66
2022/03/15 00:57:21;;;;;;;14.40;8.23;;;4.00;99.90;;;;;;5058885;28;20048;-65
2022/03/15 00:59:55;;;;;;;15.75;8.05;;;4.00;99.90;;;;;;5032025;28;20477;-65
2022/03/15 01:02:27;;;;;;;13.82;7.68;;;4.00;99.90;;;;;;5065983;28;20041;-65
2022/03/15 01:04:58;;;;;;;16.20;7.97;;;4.00;99.90;;;;;;5017285;28;20053;-66
2022/03/15 01:07:30;;;;;;;14.90;7.88;;;3.90;99.90;;;;;;5045842;28;20304;-65
2022/03/15 01:09:59;;;;;;;13.17;8.70;;;3.90;99.90;;;;;;5048759;28;20044;-65
2022/03/15 01:12:28;;;;;;;14.63;8.10;;;4.00;99.90;;;;;;5049432;28;20037;-66
2022/03/15 01:14:57;;;;;;;12.50;7.60;;;3.90;99.90;;;;;;5049081;28;20674;-66
2022/03/15 01:17:25;;;;;;;12.85;7.78;;;3.90;99.90;;;;;;5050140;28;20047;-65
2022/03/15 01:19:53;;;;;;;11.60;7.00;;;4.00;99.90;;;;;;5040368;28;20296;-65
2022/03/15 01:22:22;;;;;;;16.00;7.57;;;4.00;99.90;;;;;;5049538;28;20053;-66
2022/03/15 01:24:56;;;;;;;14.35;6.72;;;4.00;99.90;;;;;;5043430;28;20041;-66
2022/03/15 01:27:25;;;;;;;14.68;7.25;;;4.00;99.90;;;;;;5050212;28;20044;-66
2022/03/15 01:29:58;;;;;;;16.02;6.78;;;4.00;99.90;;;;;;5046682;28;20483;-66
2022/03/15 01:32:27;;;;;;;11.88;6.65;;;4.00;99.90;;;;;;5038896;28;20056;-66
2022/03/15 01:34:56;;;;;;;11.80;5.85;;;4.00;99.90;;;;;;5057664;28;20055;-66
2022/03/15 01:37:24;;;;;;;12.60;6.35;;;4.00;99.90;;;;;;5043844;28;20578;-66
2022/03/15 01:39:52;;;;;;;12.68;6.00;;;4.00;99.90;;;;;;5050042;28;20052;-66
2022/03/15 01:42:19;;;;;;;13.90;6.43;;;4.00;99.90;;;;;;5050671;28;20483;-66
2022/03/15 01:44:49;;;;;;;16.27;7.22;;;3.90;99.90;;;;;;5047904;28;20369;-66
2022/03/15 01:47:17;;;;;;;10.70;6.28;;;4.00;99.90;;;;;;5037400;28;20083;-66
2022/03/15 01:49:46;;;;;;;12.82;6.57;;;3.90;99.90;;;;;;5044492;28;20056;-66
2022/03/15 01:52:15;;;;;;;11.70;6.50;;;3.90;99.90;;;;;;5040631;28;20040;-66
2022/03/15 01:54:44;;;;;;;14.50;6.10;;;4.00;99.90;;;;;;5050407;28;20029;-65
2022/03/15 01:57:14;;;;;;;10.88;6.00;;;3.90;99.90;;;;;;5056657;28;20037;-66
2022/03/15 01:59:42;;;;;;;8.45;5.53;;;4.00;99.90;;;;;;5066025;28;20056;-66
2022/03/15 02:02:11;;;;;;;12.65;6.13;;;3.90;99.90;;;;;;5034045;28;20045;-65
2022/03/15 02:04:38;;;;;;;13.10;5.50;;;4.00;99.90;;;;;;5045020;28;20135;-66
2022/03/15 02:07:09;;;;;;;10.75;6.07;;;3.90;99.90;;;;;;5032677;28;20032;-66
2022/03/15 02:09:38;;;;;;;;;;;3.90;99.90;;;;;;5034707;28;20045;-66
2022/03/15 02:12:07;;;;;;;11.80;6.15;;;3.90;99.90;;;;;;5047989;28;19975;-66
2022/03/15 02:14:34;;;;;;;13.07;6.45;;;3.90;99.90;;;;;;5050374;28;20093;-66
2022/03/15 02:17:02;;;;;;;11.30;6.63;;;3.90;99.90;;;;;;5049859;28;20104;-66
2022/03/15 02:19:30;;;;;;;17.58;6.22;;;3.90;99.90;;;;;;5058039;28;20048;-66
2022/03/15 02:21:59;;;;;;;11.32;6.20;;;3.90;99.90;;;;;;5050179;28;20404;-66
2022/03/15 02:24:27;;;;;;;11.95;6.13;;;3.80;99.90;;;;;;5049859;28;20068;-66
2022/03/15 02:26:55;;;;;;;10.43;6.35;;;3.80;99.90;;;;;;5055870;28;20412;-66
2022/03/15 02:29:23;;;;;;;10.57;6.13;;;3.80;99.90;;;;;;5043866;28;20587;-66
2022/03/15 02:31:51;;;;;;;13.25;7.00;;;3.90;99.90;;;;;;5058839;28;20136;-66
2022/03/15 02:34:23;;;;;;;;;;;3.90;99.90;;;;;;5050685;28;20041;-67
2022/03/15 02:36:50;;;;;;;13.43;6.07;;;3.90;99.90;;;;;;5058537;28;20375;-66
2022/03/15 02:39:18;;;;;;;10.15;6.13;;;3.90;99.90;;;;;;5051559;28;20063;-66
2022/03/15 02:41:45;;;;;;;12.77;6.32;;;3.90;99.90;;;;;;5051053;28;20041;-65
2022/03/15 02:44:12;;;;;;;15.57;6.85;;;3.80;99.90;;;;;;5053863;28;20500;-66
2022/03/15 02:46:40;;;;;;;13.32;5.97;;;3.90;99.90;;;;;;5050182;28;20045;-66
2022/03/15 02:49:11;;;;;;;15.05;6.95;;;3.80;99.90;;;;;;5053969;28;20472;-67
2022/03/15 02:51:38;;;;;;;12.23;6.40;;;3.80;99.90;;;;;;5049926;28;20360;-66
2022/03/15 02:54:08;;;;;;;12.85;6.00;;;3.80;99.90;;;;;;5055225;28;20059;-66
2022/03/15 02:56:39;;;;;;;14.45;6.63;;;3.80;99.90;;;;;;5051625;28;20044;-66
2022/03/15 02:59:06;;;;;;;11.88;6.20;;;3.80;99.90;;;;;;5053551;28;20044;-66
2022/03/15 03:01:35;;;;;;;15.60;7.18;;;3.80;99.90;;;;;;5051381;28;20103;-66
2022/03/15 03:04:03;;;;;;;10.52;6.22;;;3.80;99.90;;;;;;5053762;28;20508;-66
2022/03/15 03:06:31;;;;;;;11.38;6.70;;;3.70;99.90;;;;;;5053193;28;20405;-66
2022/03/15 03:08:59;;;;;;;12.75;6.57;;;3.80;99.90;;;;;;5052532;28;20060;-65
2022/03/15 03:11:26;;;;;;;15.38;7.18;;;3.80;99.90;;;;;;5051099;28;20048;-66
2022/03/15 03:13:56;;;;;;;15.25;6.95;;;3.70;99.90;;;;;;5053355;28;20488;-66
2022/03/15 03:16:24;;;;;;;15.88;6.68;;;3.70;99.90;;;;;;5052516;28;20055;-66
2022/03/15 03:18:57;;;;;;;14.15;6.55;;;3.70;99.90;;;;;;5052113;28;20102;-66
2022/03/15 03:21:27;;;;;;;11.35;6.72;;;3.70;99.90;;;;;;5052330;28;20091;-66
2022/03/15 03:23:56;;;;;;;14.88;6.82;;;3.60;99.90;;;;;;5053002;28;20145;-65
2022/03/15 03:26:25;;;;;;;13.85;7.68;;;3.60;99.90;;;;;;5053065;28;20033;-65
2022/03/15 03:28:53;;;;;;;16.92;7.40;;;3.70;99.90;;;;;;5051697;28;20041;-66
2022/03/15 03:31:21;;;;;;;14.38;8.15;;;3.60;99.90;;;;;;5046676;28;20044;-65
2022/03/15 03:33:48;;;;;;;13.80;7.85;;;3.70;99.90;;;;;;5071035;28;20155;-65
2022/03/15 03:36:16;;;;;;;16.30;8.60;;;3.70;99.90;;;;;;5070233;28;20044;-66
2022/03/15 03:38:45;;;;;;;18.02;8.82;;;3.70;99.90;;;;;;5059793;28;20071;-65
2022/03/15 03:41:12;;;;;;;22.83;11.25;;;3.70;99.90;;;;;;5054293;28;20045;-65
2022/03/15 03:43:40;;;;;;;24.80;12.20;;;3.70;99.90;;;;;;5071173;28;20498;-65
2022/03/15 03:46:07;;;;;;;17.35;9.05;;;3.70;99.90;;;;;;5065543;28;20055;-65
2022/03/15 03:48:36;;;;;;;14.57;8.02;;;3.60;99.90;;;;;;5058780;28;20613;-65
2022/03/15 03:51:04;;;;;;;16.67;7.30;;;3.60;99.90;;;;;;5068184;28;20044;-65
2022/03/15 03:53:31;;;;;;;15.02;7.72;;;3.50;99.90;;;;;;5070416;28;20062;-65
2022/03/15 03:55:58;;;;;;;13.80;8.00;;;3.50;99.90;;;;;;5059384;28;20056;-65
2022/03/15 03:58:25;;;;;;;15.40;7.13;;;3.40;99.90;;;;;;5060548;28;20698;-65
2022/03/15 04:00:52;;;;;;;14.73;7.43;;;3.50;99.90;;;;;;5051373;28;20549;-65
2022/03/15 04:03:24;;;;;;;13.73;7.95;;;3.40;99.90;;;;;;5050961;28;20040;-65
2022/03/15 04:05:52;;;;;;;15.05;8.32;;;3.30;99.90;;;;;;5044091;28;20485;-65
2022/03/15 04:08:19;;;;;;;14.95;7.78;;;3.30;99.90;;;;;;5058476;28;20051;-66
2022/03/15 04:10:48;;;;;;;12.05;7.20;;;3.20;99.90;;;;;;5058606;28;20045;-65
2022/03/15 04:13:18;;;;;;;13.65;8.45;;;3.20;99.90;;;;;;5047115;28;20033;-66
2022/03/15 04:15:46;;;;;;;13.93;8.13;;;3.20;99.90;;;;;;5060514;28;20080;-66
2022/03/15 04:18:14;;;;;;;12.60;7.68;;;3.20;99.90;;;;;;5053850;28;20099;-65
2022/03/15 04:20:41;;;;;;;13.43;7.70;;;3.20;99.90;;;;;;5049979;28;20063;-65
2022/03/15 04:23:10;;;;;;;13.20;8.00;;;3.20;99.90;;;;;;5050971;28;20056;-65
2022/03/15 04:25:38;;;;;;;13.32;7.88;;;3.20;99.90;;;;;;5051572;28;20734;-65
2022/03/15 04:28:05;;;;;;;13.75;8.75;;;3.10;99.90;;;;;;5050699;28;20508;-65
2022/03/15 04:30:33;;;;;;;15.43;7.68;;;3.10;99.90;;;;;;5050837;28;20373;-65
2022/03/15 04:33:01;;;;;;;12.75;8.65;;;3.10;99.90;;;;;;5052026;28;20029;-65
2022/03/15 04:35:32;;;;;;;17.33;8.93;;;3.10;99.90;;;;;;5052671;28;20136;-66
2022/03/15 04:37:59;;;;;;;15.68;9.25;;;3.10;99.90;;;;;;5050378;28;20049;-64
2022/03/15 04:40:27;;;;;;;16.60;9.70;;;3.10;99.90;;;;;;5051441;28;20056;-64
2022/03/15 04:42:54;;;;;;;15.60;9.13;;;3.00;99.90;;;;;;5051237;28;20045;-66
2022/03/15 04:45:22;;;;;;;13.25;8.45;;;2.80;99.90;;;;;;5051494;28;20040;-66
2022/03/15 04:47:50;;;;;;;14.02;8.98;;;2.80;99.90;;;;;;5049790;28;20100;-64
2022/03/15 04:50:18;;;;;;;15.40;8.90;;;2.80;99.90;;;;;;5042961;28;20076;-65
2022/03/15 04:52:45;;;;;;;16.77;9.40;;;2.80;99.90;;;;;;5042901;28;20056;-65
2022/03/15 04:55:13;;;;;;;18.45;9.85;;;2.90;99.90;;;;;;5042966;28;20435;-66
2022/03/15 04:57:40;;;;;;;18.10;10.32;;;2.90;99.90;;;;;;5050767;28;20064;-66
2022/03/15 05:00:09;;;;;;;15.10;9.82;;;2.80;99.90;;;;;;5052877;28;20045;-66
2022/03/15 05:02:40;;;;;;;16.42;10.23;;;2.80;99.90;;;;;;5051733;28;20244;-65
2022/03/15 05:05:10;;;;;;;15.52;9.45;;;2.80;99.90;;;;;;5050829;28;20048;-65
2022/03/15 05:07:37;;;;;;;21.95;10.90;;;2.80;99.90;;;;;;5050467;28;20800;-65
2022/03/15 05:12:51;;;;;;;14.68;9.50;;;2.80;99.90;;;;;;5049011;28;20383;-66
2022/03/15 05:15:18;;;;;;;16.00;9.40;;;2.90;99.90;;;;;;5034648;28;20063;-66
2022/03/15 05:17:46;;;;;;;22.30;11.23;;;2.90;99.90;;;;;;5052029;28;20053;-66
2022/03/15 05:20:14;;;;;;;25.58;11.77;;;2.90;99.90;;;;;;5036826;28;20056;-65
2022/03/15 05:22:43;;;;;;;18.15;11.68;;;3.00;99.90;;;;;;5043673;28;20072;-66
2022/03/15 05:25:12;;;;;;;19.38;12.07;;;3.00;99.90;;;;;;5062266;28;20037;-66
2022/03/15 05:27:41;;;;;;;21.13;12.80;;;3.10;99.90;;;;;;5068106;28;20040;-66
2022/03/15 05:30:09;;;;;;;20.27;11.80;;;3.00;99.90;;;;;;5051206;28;20068;-66
2022/03/15 05:32:36;;;;;;;18.50;10.80;;;3.10;99.90;;;;;;5052362;28;20044;-65
2022/03/15 05:35:04;;;;;;;17.98;11.02;;;3.10;99.90;;;;;;5059759;28;20094;-66
2022/03/15 05:37:31;;;;;;;21.52;10.30;;;3.00;99.90;;;;;;5060345;28;20056;-65
2022/03/15 05:40:00;;;;;;;15.70;10.15;;;3.10;99.90;;;;;;5042102;28;20148;-65
2022/03/15 05:42:28;;;;;;;16.48;10.18;;;3.10;99.90;;;;;;5060738;28;20477;-66
2022/03/15 05:44:55;;;;;;;15.40;9.52;;;3.10;99.90;;;;;;5040673;28;20037;-66
2022/03/15 05:47:22;;;;;;;13.60;9.57;;;3.10;99.90;;;;;;5055223;28;20595;-66
2022/03/15 05:49:50;;;;;;;14.38;9.20;;;3.10;99.90;;;;;;5049048;28;20256;-65
2022/03/15 05:52:17;;;;;;;14.32;8.82;;;3.10;99.90;;;;;;5056250;28;20037;-66
2022/03/15 05:54:44;;;;;;;16.52;9.60;;;3.20;99.90;;;;;;5055334;28;20124;-66
2022/03/15 05:57:12;;;;;;;18.08;9.63;;;3.20;99.90;;;;;;5047031;28;20508;-66
2022/03/15 05:59:39;;;;;;;15.13;9.02;;;3.20;99.90;;;;;;5046275;28;20447;-66
2022/03/15 06:02:06;;;;;;;14.88;9.73;;;3.20;99.90;;;;;;5046772;28;20506;-67
2022/03/15 06:04:34;;;;;;;17.88;10.98;;;3.30;99.90;;;;;;5050222;28;20421;-65
2022/03/15 06:07:02;;;;;;;15.73;9.98;;;3.30;99.90;;;;;;5051157;28;20041;-66
2022/03/15 06:09:33;;;;;;;19.08;11.73;;;3.40;99.90;;;;;;5051520;28;20152;-65
2022/03/15 06:12:01;;;;;;;16.20;10.13;;;3.50;99.90;;;;;;5062684;28;20058;-66
2022/03/15 06:14:29;;;;;;;18.05;10.38;;;3.50;99.90;;;;;;5069660;28;20033;-66
2022/03/15 06:16:56;;;;;;;17.58;11.68;;;3.60;99.90;;;;;;5055395;28;20045;-65
2022/03/15 06:19:24;;;;;;;25.30;14.25;;;3.60;99.90;;;;;;5046213;28;20124;-65
2022/03/15 06:21:52;;;;;;;22.13;12.55;;;3.60;99.90;;;;;;5055985;28;20040;-65
2022/03/15 06:24:19;;;;;;;17.98;11.65;;;3.70;99.90;;;;;;5050430;28;20045;-66
2022/03/15 06:26:47;;;;;;;19.75;12.00;;;3.70;99.90;;;;;;5049790;28;20057;-66
2022/03/15 06:29:15;;;;;;;25.73;14.15;;;3.80;99.90;;;;;;5050451;28;20051;-66
2022/03/15 06:31:43;;;;;;;21.27;11.85;;;3.80;99.90;;;;;;5055936;28;20036;-66
2022/03/15 06:34:11;;;;;;;15.13;10.07;;;3.90;99.90;;;;;;5053055;28;20095;-66
2022/03/15 06:36:38;;;;;;;16.08;11.10;;;4.00;99.90;;;;;;5050068;28;20049;-66
2022/03/15 06:39:06;;;;;;;15.85;9.10;;;4.10;99.90;;;;;;5058960;28;20060;-67
2022/03/15 06:41:39;;;;;;;18.23;10.82;;;4.10;99.90;;;;;;5055213;28;20041;-67
2022/03/15 06:44:07;;;;;;;16.27;10.00;;;4.20;99.90;;;;;;5053739;28;20041;-66
2022/03/15 06:46:35;;;;;;;17.85;10.35;;;4.30;99.90;;;;;;5047178;28;20420;-66
2022/03/15 06:49:03;;;;;;;25.20;10.65;;;4.40;99.90;;;;;;5050523;28;20103;-66
2022/03/15 06:51:30;;;;;;;19.05;10.75;;;4.50;99.90;;;;;;5047573;28;20041;-67
2022/03/15 06:53:58;;;;;;;16.60;11.30;;;4.50;99.90;;;;;;5055406;28;20037;-65
2022/03/15 06:56:25;;;;;;;20.33;10.63;;;4.60;99.90;;;;;;5050615;28;20053;-65
2022/03/15 06:58:52;;;;;;;19.60;11.00;;;4.70;99.90;;;;;;5047216;28;20060;-65
2022/03/15 07:01:20;;;;;;;22.90;10.45;;;4.80;99.90;;;;;;5049181;28;20480;-67
2022/03/15 07:03:49;;;;;;;21.23;10.13;;;4.80;99.90;;;;;;5051929;28;20587;-66
2022/03/15 07:06:16;;;;;;;22.95;11.15;;;4.90;99.90;;;;;;5042961;28;20467;-68
2022/03/15 07:08:44;;;;;;;22.75;10.60;;;5.00;99.90;;;;;;5041265;28;20111;-67
2022/03/15 07:11:11;;;;;;;16.23;10.45;;;5.00;99.90;;;;;;5041665;28;20361;-66
2022/03/15 07:13:38;;;;;;;18.08;11.05;;;5.10;99.90;;;;;;5047969;28;20036;-66
2022/03/15 07:16:07;;;;;;;17.95;11.27;;;5.20;99.90;;;;;;5047255;28;20135;-67
2022/03/15 07:18:34;;;;;;;19.30;12.23;;;5.20;99.90;;;;;;5048062;28;20049;-67
2022/03/15 07:21:01;;;;;;;17.00;9.80;;;5.30;99.90;;;;;;5048062;28;20044;-67
2022/03/15 07:23:29;;;;;;;19.95;10.48;;;5.40;99.90;;;;;;5049962;28;20076;-66
2022/03/15 07:25:56;;;;;;;19.75;11.57;;;5.60;99.90;;;;;;5049776;28;20064;-67
2022/03/15 07:28:23;;;;;;;16.95;11.00;;;5.70;99.90;;;;;;5048881;28;20491;-67
2022/03/15 07:30:51;;;;;;;19.73;11.32;;;5.80;99.90;;;;;;5018067;28;20072;-68
2022/03/15 07:33:19;;;;;;;16.83;11.05;;;5.90;99.90;;;;;;5046739;28;20484;-68
2022/03/15 07:35:46;;;;;;;17.38;10.65;;;6.00;99.90;;;;;;5047599;28;20075;-67
2022/03/15 07:38:17;;;;;;;16.30;10.25;;;6.20;99.90;;;;;;5049640;28;20045;-68
2022/03/15 07:40:44;;;;;;;19.00;8.45;;;6.40;99.90;;;;;;5048598;28;20045;-68
2022/03/15 07:43:12;;;;;;;15.63;8.68;;;6.60;99.90;;;;;;5057889;28;20051;-68
2022/03/15 07:45:40;;;;;;;15.13;8.65;;;6.80;99.90;;;;;;5052011;28;20110;-68
2022/03/15 07:48:07;;;;;;;15.30;8.02;;;7.00;99.90;;;;;;5051253;28;20041;-68
2022/03/15 07:50:35;;;;;;;13.02;7.05;;;7.20;99.90;;;;;;5053182;28;20044;-67
2022/03/15 07:53:03;;;;;;;16.13;7.55;;;7.40;99.90;;;;;;5055343;28;20124;-69
2022/03/15 07:55:30;;;;;;;14.50;8.00;;;7.50;99.90;;;;;;5053067;28;20059;-69
2022/03/15 07:57:58;;;;;;;16.98;7.95;;;7.60;99.90;;;;;;5044576;28;20077;-67
2022/03/15 08:00:25;;;;;;;11.90;6.75;;;7.80;99.90;;;;;;5047047;28;20065;-68
2022/03/15 08:02:53;;;;;;;10.73;6.85;;;8.00;99.90;;;;;;5048057;28;20102;-67
2022/03/15 08:05:22;;;;;;;18.65;7.63;;;8.10;99.90;;;;;;5049187;28;20035;-67
2022/03/15 08:07:50;;;;;;;19.17;8.00;;;8.30;99.90;;;;;;5067744;28;20059;-67
2022/03/15 08:10:18;;;;;;;12.70;7.40;;;8.40;99.90;;;;;;5055591;28;20070;-66
2022/03/15 08:12:46;;;;;;;15.82;7.45;;;8.50;99.90;;;;;;5067035;28;20083;-67
2022/03/15 08:15:14;;;;;;;16.27;8.25;;;8.50;99.90;;;;;;5059663;28;20056;-67
2022/03/15 08:17:41;;;;;;;16.30;8.25;;;8.60;99.90;;;;;;5052335;28;20052;-68
2022/03/15 08:20:17;;;;;;;14.52;7.80;;;8.70;99.90;;;;;;5059485;28;20055;-68
2022/03/15 08:22:45;;;;;;;14.27;7.38;;;8.80;99.90;;;;;;5046958;28;20103;-68
2022/03/15 08:25:12;;;;;;;21.45;7.63;;;9.00;99.90;;;;;;5050707;28;20053;-68
2022/03/15 08:27:40;;;;;;;36.17;10.35;;;9.10;99.90;;;;;;5057320;28;20071;-68
2022/03/15 08:30:09;;;;;;;25.77;8.80;;;9.20;99.90;;;;;;5061053;28;20041;-68
2022/03/15 08:32:36;;;;;;;14.98;7.95;;;9.40;99.90;;;;;;5049260;28;20380;-67
2022/03/15 08:35:04;;;;;;;15.30;7.30;;;9.60;99.90;;;;;;5058792;28;20120;-67
2022/03/15 08:37:31;;;;;;;14.25;7.07;;;9.70;99.90;;;;;;5065698;28;20037;-67
2022/03/15 08:39:59;;;;;;;15.00;6.82;;;9.70;99.90;;;;;;5056103;28;20186;-68
2022/03/15 08:42:27;;;;;;;11.07;6.63;;;9.70;99.90;;;;;;5053870;28;20053;-68
2022/03/15 08:44:54;;;;;;;15.85;7.38;;;9.80;99.90;;;;;;5052077;28;20388;-68
2022/03/15 08:47:22;;;;;;;14.23;7.88;;;9.90;99.90;;;;;;5054233;28;20040;-68
2022/03/15 08:49:50;;;;;;;12.70;6.55;;;9.90;99.90;;;;;;5050653;28;20044;-67
2022/03/15 08:52:17;;;;;;;11.88;6.30;;;10.00;99.90;;;;;;5056793;28;20440;-67
2022/03/15 08:54:45;;;;;;;15.27;6.80;;;10.10;99.90;;;;;;5051218;28;20037;-66
2022/03/15 08:57:14;;;;;;;10.93;6.00;;;10.20;99.90;;;;;;5045695;28;20060;-68
2022/03/15 08:59:43;;;;;;;13.18;6.85;;;10.30;99.90;;;;;;5048612;28;20426;-69
2022/03/15 09:02:12;;;;;;;14.35;6.22;;;10.40;99.90;;;;;;5047584;28;20060;-67
2022/03/15 09:04:40;;;;;;;12.18;6.80;;;10.50;99.90;;;;;;5042998;28;20083;-67
2022/03/15 09:07:07;;;;;;;14.70;7.35;;;10.60;99.90;;;;;;5054401;28;20045;-68
2022/03/15 09:09:35;;;;;;;14.15;6.60;;;10.70;99.90;;;;;;5044341;28;20046;-68
2022/03/15 09:12:03;;;;;;;13.73;6.43;;;10.80;99.90;;;;;;5048887;28;20092;-68
2022/03/15 09:14:31;;;;;;;13.43;6.50;;;10.90;99.90;;;;;;5043393;28;20057;-68
2022/03/15 09:16:59;;;;;;;12.18;7.00;;;11.00;99.90;;;;;;5050960;28;20081;-68
2022/03/15 09:19:26;;;;;;;14.60;5.97;;;11.20;99.90;;;;;;5053640;28;20048;-68
2022/03/15 09:21:55;;;;;;;13.52;6.88;;;11.30;99.90;;;;;;5055467;28;20511;-67
2022/03/15 09:24:22;;;;;;;8.95;5.53;;;11.40;99.90;;;;;;5054445;28;20136;-67
2022/03/15 09:26:50;;;;;;;12.00;6.20;;;11.50;99.90;;;;;;5052752;28;20132;-67
2022/03/15 09:29:17;;;;;;;13.52;6.80;;;11.50;99.90;;;;;;5043448;28;20044;-67
2022/03/15 09:31:45;;;;;;;11.50;6.78;;;11.50;99.90;;;;;;5056709;28;20040;-68
2022/03/15 09:34:18;;;;;;;13.10;6.93;;;11.50;99.90;;;;;;5052674;28;20442;-68
2022/03/15 09:36:45;;;;;;;11.88;6.18;;;11.40;99.90;;;;;;5050579;28;20523;-68
2022/03/15 09:39:14;;;;;;;11.98;7.15;;;11.30;99.90;;;;;;5051809;28;20136;-67
2022/03/15 09:41:42;;;;;;;13.05;6.30;;;11.30;99.90;;;;;;5033618;28;20112;-67
2022/03/15 09:44:10;;;;;;;10.65;6.38;;;11.30;99.90;;;;;;5053503;28;20048;-68
2022/03/15 09:46:42;;;;;;;14.48;6.82;;;11.20;99.90;;;;;;5056211;28;20032;-67
2022/03/15 09:49:25;;;;;;;10.23;6.40;;;11.10;99.90;;;;;;5054642;28;20566;-67
2022/03/15 09:51:56;;;;;;;13.48;6.63;;;11.00;99.90;;;;;;5052186;28;20103;-68
2022/03/15 09:54:27;;;;;;;16.98;6.90;;;10.90;99.90;;;;;;5041094;28;20044;-69
2022/03/15 09:56:55;;;;;;;14.87;6.77;;;10.90;99.90;;;;;;5052556;28;20395;-67
2022/03/15 09:59:26;;;;;;;14.25;6.72;;;10.90;99.90;;;;;;5021075;28;20308;-67
2022/03/15 10:01:56;;;;;;;15.88;6.93;;;11.00;99.90;;;;;;5044292;28;20057;-69
2022/03/15 10:04:25;;;;;;;13.93;6.35;;;11.10;99.90;;;;;;5040586;28;20575;-67
2022/03/15 10:06:53;;;;;;;9.93;6.55;;;11.20;99.90;;;;;;5050108;28;20065;-68
2022/03/15 10:09:25;;;;;;;11.85;6.53;;;11.20;99.90;;;;;;5052653;28;20586;-68
2022/03/15 10:11:53;;;;;;;14.48;7.55;;;11.30;99.90;;;;;;5058249;28;20040;-68
2022/03/15 10:14:20;;;;;;;19.02;7.65;;;11.30;99.90;;;;;;5057290;28;20387;-69
2022/03/15 10:16:50;;;;;;;14.15;6.90;;;11.40;99.90;;;;;;5048419;28;20144;-67
2022/03/15 10:19:18;;;;;;;13.90;7.25;;;11.60;99.90;;;;;;5055194;28;20047;-69
2022/03/15 10:21:50;;;;;;;16.35;7.55;;;11.50;99.90;;;;;;5044747;28;20476;-68
2022/03/15 10:24:29;;;;;;;14.38;7.78;;;11.70;99.90;;;;;;5050366;28;20048;-68
2022/03/15 10:27:00;;;;;;;13.45;7.35;;;11.90;99.90;;;;;;5056011;28;20036;-68
2022/03/15 10:29:30;;;;;;;15.52;7.68;;;12.20;99.90;;;;;;5054391;28;20174;-69
2022/03/15 10:31:58;;;;;;;14.52;7.45;;;12.40;99.90;;;;;;5051567;28;20059;-68
2022/03/15 10:34:27;;;;;;;17.85;7.75;;;12.70;99.90;;;;;;5044462;28;20098;-68
2022/03/15 10:36:56;;;;;;;14.30;8.35;;;12.90;99.90;;;;;;5039720;28;20109;-68
2022/03/15 10:39:25;;;;;;;14.93;7.90;;;13.10;99.90;;;;;;5046829;28;20045;-67
2022/03/15 10:42:06;;;;;;;12.88;7.40;;;13.30;99.90;;;;;;5053282;28;20080;-68
2022/03/15 10:44:39;;;;;;;16.90;8.57;;;13.50;99.90;;;;;;5050027;28;20041;-68
2022/03/15 10:47:14;;;;;;;18.73;7.80;;;13.70;99.90;;;;;;5064086;28;20036;-68
2022/03/15 10:49:54;;;;;;;17.98;8.90;;;13.80;99.90;;;;;;5064464;28;20037;-68
2022/03/15 10:52:33;;;;;;;14.05;8.50;;;14.00;99.90;;;;;;5050277;28;20099;-68
2022/03/15 10:55:24;;;;;;;18.45;7.70;;;14.00;99.90;;;;;;5062635;28;20131;-68
2022/03/15 10:57:57;;;;;;;15.07;8.05;;;14.10;99.90;;;;;;5062993;28;20056;-69
2022/03/15 11:00:30;;;;;;;17.38;8.48;;;14.00;99.90;;;;;;5047186;28;20045;-69
2022/03/15 11:02:58;;;;;;;19.15;8.48;;;13.90;99.90;;;;;;5045086;28;20048;-68
2022/03/15 11:05:38;;;;;;;18.92;9.30;;;14.00;99.90;;;;;;5042397;28;20067;-67
2022/03/15 11:08:08;;;;;;;13.70;8.40;;;14.00;99.90;;;;;;5050300;28;20048;-67
2022/03/15 11:10:37;;;;;;;17.80;8.45;;;14.10;99.90;;;;;;5056508;28;20044;-68
2022/03/15 11:13:11;;;;;;;20.10;9.45;;;14.20;99.90;;;;;;5050827;28;20033;-68
2022/03/15 11:15:42;;;;;;;18.90;8.95;;;14.10;99.90;;;;;;5050389;28;20049;-68
2022/03/15 11:18:12;;;;;;;19.45;9.32;;;14.00;99.90;;;;;;5055055;28;20125;-67
2022/03/15 11:20:49;;;;;;;18.50;8.60;;;14.00;99.90;;;;;;5046414;28;20041;-67
2022/03/15 11:23:19;;;;;;;15.15;8.95;;;14.10;99.90;;;;;;5059717;28;20558;-68
2022/03/15 11:25:55;;;;;;;16.93;9.67;;;14.20;99.90;;;;;;5051950;28;20084;-68
2022/03/15 11:28:27;;;;;;;18.05;9.00;;;14.30;99.90;;;;;;5052958;28;20130;-68
2022/03/15 11:30:56;;;;;;;18.77;10.20;;;14.20;99.90;;;;;;5051574;28;20049;-68
2022/03/15 11:33:25;;;;;;;18.92;10.23;;;13.80;99.90;;;;;;5053312;28;20554;-68
2022/03/15 11:35:53;;;;;;;17.35;10.23;;;13.70;99.90;;;;;;5064360;28;20488;-69
2022/03/15 11:38:21;;;;;;;15.55;10.30;;;13.60;99.90;;;;;;5056312;28;20045;-68
2022/03/15 11:40:54;;;;;;;16.75;11.00;;;13.50;99.90;;;;;;5065854;28;20102;-68
2022/03/15 11:43:25;;;;;;;19.23;10.55;;;13.60;99.90;;;;;;5053399;28;20380;-68
2022/03/15 11:46:16;;;;;;;16.50;11.23;;;13.60;99.90;;;;;;5057379;28;20048;-68
2022/03/15 11:48:55;;;;;;;16.10;10.35;;;13.40;99.90;;;;;;5044168;28;20068;-69
2022/03/15 11:51:38;;;;;;;16.95;10.90;;;13.30;99.90;;;;;;5064872;28;20044;-69
2022/03/15 11:54:33;;;;;;;16.40;10.80;;;13.20;99.90;;;;;;5059774;28;20583;-68
2022/03/15 11:57:10;;;;;;;17.48;10.65;;;12.90;99.90;;;;;;5058036;28;20053;-68
2022/03/15 11:59:45;;;;;;;18.50;11.25;;;12.90;99.90;;;;;;5062056;28;20108;-68
2022/03/15 12:02:13;;;;;;;16.95;10.57;;;12.80;99.90;;;;;;5054049;28;20456;-69
2022/03/15 12:04:44;;;;;;;18.00;11.18;;;12.90;99.90;;;;;;5053534;28;20534;-69
2022/03/15 12:07:13;;;;;;;17.95;11.75;;;12.80;99.90;;;;;;5052205;28;20052;-68
2022/03/15 12:09:46;;;;;;;20.75;11.02;;;12.70;99.90;;;;;;5052865;28;20053;-68
2022/03/15 12:12:18;;;;;;;17.58;10.35;;;12.70;99.90;;;;;;5055888;28;20040;-68
2022/03/15 12:14:52;;;;;;;15.45;9.85;;;12.70;99.90;;;;;;5074370;28;20055;-69
2022/03/15 12:17:20;;;;;;;21.00;10.90;;;12.70;99.90;;;;;;5072744;28;20052;-69
2022/03/15 12:19:50;;;;;;;16.80;9.52;;;12.70;99.90;;;;;;5064929;28;20372;-67
2022/03/15 12:22:34;;;;;;;16.10;10.23;;;12.80;99.90;;;;;;5049131;28;20448;-67
2022/03/15 12:25:14;;;;;;;14.88;9.77;;;12.90;99.90;;;;;;5053397;28;20044;-67
2022/03/15 12:28:03;;;;;;;17.58;9.95;;;12.70;99.90;;;;;;5049715;28;20041;-68
2022/03/15 12:30:37;;;;;;;17.02;10.63;;;12.60;99.90;;;;;;5053927;28;20138;-68
2022/03/15 12:33:05;;;;;;;18.98;10.43;;;12.60;99.90;;;;;;5053978;28;20041;-69
2022/03/15 12:35:33;;;;;;;15.85;10.38;;;12.60;99.90;;;;;;5054863;28;20515;-68
2022/03/15 12:38:05;;;;;;;15.85;10.30;;;12.60;99.90;;;;;;5051911;28;20396;-67
2022/03/15 12:40:33;;;;;;;23.80;9.95;;;12.50;99.90;;;;;;5050274;28;20392;-67
2022/03/15 12:43:04;;;;;;;14.80;9.70;;;12.60;99.90;;;;;;5051983;28;20515;-68
2022/03/15 12:45:33;;;;;;;15.43;10.20;;;12.50;99.90;;;;;;5054199;28;20052;-68
2022/03/15 12:48:06;;;;;;;16.05;10.02;;;12.50;99.90;;;;;;5051960;28;20056;-67
2022/03/15 12:50:56;;;;;;;15.70;9.55;;;12.50;99.90;;;;;;5049803;28;20036;-67
2022/03/15 12:53:48;;;;;;;12.70;9.30;;;12.60;99.90;;;;;;5051521;28;20503;-67
2022/03/15 12:56:15;;;;;;;16.83;9.50;;;12.60;99.90;;;;;;5059264;28;20435;-67
2022/03/15 12:58:43;;;;;;;15.35;9.18;;;12.70;99.90;;;;;;5063712;28;20047;-67